sensor_id;sensor_type;location;lat;lon;timestamp;temperature;humidity
1359;DHT22;673;48.098;14.422;2023-07-31T00:01:47;16.70;99.90
1359;DHT22;673;48.098;14.422;2023-07-31T00:04:14;16.70;99.90
1359;DHT22;673;48.098;14.422;2023-07-31T00:06:41;16.70;99.90
1359;DHT22;673;48.098;14.422;2023-07-31T00:09:09;16.70;99.90
1359;DHT22;673;48.098;14.422;2023-07-31T00:11:36;16.70;99.90
1359;DHT22;673;48.098;14.422;2023-07-31T00:14:03;16.80;99.90
1359;DHT22;673;48.098;14.422;2023-07-31T00:16:30;16.70;99.90
1359;DHT22;673;48.098;14.422;2023-07-31T00:18:57;16.70;99.90
1359;DHT22;673;48.098;14.422;2023-07-31T00:21:24;16.70;99.90
1359;DHT22;673;48.098;14.422;2023-07-31T00:23:51;16.70;99.90
1359;DHT22;673;48.098;14.422;2023-07-31T00:26:19;16.70;99.90
1359;DHT22;673;48.098;14.422;2023-07-31T00:28:46;16.70;99.90
1359;DHT22;673;48.098;14.422;2023-07-31T00:31:13;16.80;99.90
1359;DHT22;673;48.098;14.422;2023-07-31T00:33:40;16.90;99.90
1359;DHT22;673;48.098;14.422;2023-07-31T00:36:07;16.90;99.90
1359;DHT22;673;48.098;14.422;2023-07-31T00:38:34;17.00;99.90
1359;DHT22;673;48.098;14.422;2023-07-31T00:41:01;16.90;99.90
1359;DHT22;673;48.098;14.422;2023-07-31T00:43:29;16.90;99.90
1359;DHT22;673;48.098;14.422;2023-07-31T00:45:56;16.90;99.90
1359;DHT22;673;48.098;14.422;2023-07-31T00:48:24;16.80;99.90
1359;DHT22;673;48.098;14.422;2023-07-31T00:50:51;16.80;99.90
1359;DHT22;673;48.098;14.422;2023-07-31T00:53:18;16.80;99.90
1359;DHT22;673;48.098;14.422;2023-07-31T00:55:45;16.80;99.90
1359;DHT22;673;48.098;14.422;2023-07-31T00:58:12;16.90;99.90
1359;DHT22;673;48.098;14.422;2023-07-31T01:00:40;16.90;99.90
1359;DHT22;673;48.098;14.422;2023-07-31T01:03:07;16.90;99.90
1359;DHT22;673;48.098;14.422;2023-07-31T01:05:52;16.90;99.90
1359;DHT22;673;48.098;14.422;2023-07-31T01:08:29;16.90;99.90
1359;DHT22;673;48.098;14.422;2023-07-31T01:11:02;16.90;99.90
1359;DHT22;673;48.098;14.422;2023-07-31T01:13:32;16.90;99.90
1359;DHT22;673;48.098;14.422;2023-07-31T01:16:00;16.90;99.90
1359;DHT22;673;48.098;14.422;2023-07-31T01:18:27;16.90;99.90
1359;DHT22;673;48.098;14.422;2023-07-31T01:20:58;16.90;99.90
1359;DHT22;673;48.098;14.422;2023-07-31T01:26:37;16.90;99.90
1359;DHT22;673;48.098;14.422;2023-07-31T01:29:12;16.80;99.90
1359;DHT22;673;48.098;14.422;2023-07-31T01:31:42;16.80;99.90
1359;DHT22;673;48.098;14.422;2023-07-31T01:34:10;16.80;99.90
1359;DHT22;673;48.098;14.422;2023-07-31T01:36:38;16.70;99.90
1359;DHT22;673;48.098;14.422;2023-07-31T01:39:05;16.70;99.90
1359;DHT22;673;48.098;14.422;2023-07-31T01:41:32;16.70;99.90
1359;DHT22;673;48.098;14.422;2023-07-31T01:44:00;16.70;99.90
1359;DHT22;673;48.098;14.422;2023-07-31T01:46:27;16.70;99.90
1359;DHT22;673;48.098;14.422;2023-07-31T01:48:54;16.60;99.90
1359;DHT22;673;48.098;14.422;2023-07-31T01:51:21;16.60;99.90
1359;DHT22;673;48.098;14.422;2023-07-31T01:53:48;16.50;99.90
1359;DHT22;673;48.098;14.422;2023-07-31T01:56:15;16.50;99.90
1359;DHT22;673;48.098;14.422;2023-07-31T01:58:42;16.50;99.90
1359;DHT22;673;48.098;14.422;2023-07-31T02:01:10;16.50;99.90
1359;DHT22;673;48.098;14.422;2023-07-31T02:03:37;16.50;99.90
1359;DHT22;673;48.098;14.422;2023-07-31T02:06:04;16.50;99.90
1359;DHT22;673;48.098;14.422;2023-07-31T02:08:31;16.40;99.90
1359;DHT22;673;48.098;14.422;2023-07-31T02:10:58;16.40;99.90
1359;DHT22;673;48.098;14.422;2023-07-31T02:13:25;16.40;99.90
1359;DHT22;673;48.098;14.422;2023-07-31T02:15:52;16.50;99.90
1359;DHT22;673;48.098;14.422;2023-07-31T02:18:20;16.50;99.90
1359;DHT22;673;48.098;14.422;2023-07-31T02:20:49;16.50;99.90
1359;DHT22;673;48.098;14.422;2023-07-31T02:23:16;16.50;99.90
1359;DHT22;673;48.098;14.422;2023-07-31T02:25:44;16.50;99.90
1359;DHT22;673;48.098;14.422;2023-07-31T02:28:11;16.50;99.90
1359;DHT22;673;48.098;14.422;2023-07-31T02:30:38;16.40;99.90
1359;DHT22;673;48.098;14.422;2023-07-31T02:33:05;16.40;99.90
1359;DHT22;673;48.098;14.422;2023-07-31T02:35:34;16.40;99.90
1359;DHT22;673;48.098;14.422;2023-07-31T02:38:01;16.30;99.90
1359;DHT22;673;48.098;14.422;2023-07-31T02:40:28;16.30;99.90
1359;DHT22;673;48.098;14.422;2023-07-31T02:42:55;16.30;99.90
1359;DHT22;673;48.098;14.422;2023-07-31T02:45:22;16.20;99.90
1359;DHT22;673;48.098;14.422;2023-07-31T02:47:49;16.20;99.90
1359;DHT22;673;48.098;14.422;2023-07-31T02:50:16;16.20;99.90
1359;DHT22;673;48.098;14.422;2023-07-31T02:52:44;16.10;99.90
1359;DHT22;673;48.098;14.422;2023-07-31T02:55:11;15.90;99.90
1359;DHT22;673;48.098;14.422;2023-07-31T02:57:38;15.90;99.90
1359;DHT22;673;48.098;14.422;2023-07-31T03:00:06;15.70;99.90
1359;DHT22;673;48.098;14.422;2023-07-31T03:02:33;15.70;99.90
1359;DHT22;673;48.098;14.422;2023-07-31T03:05:00;15.70;99.90
1359;DHT22;673;48.098;14.422;2023-07-31T03:07:27;15.50;99.90
1359;DHT22;673;48.098;14.422;2023-07-31T03:09:57;15.50;99.90
1359;DHT22;673;48.098;14.422;2023-07-31T03:12:24;15.40;99.90
1359;DHT22;673;48.098;14.422;2023-07-31T03:14:51;15.30;99.90
1359;DHT22;673;48.098;14.422;2023-07-31T03:17:17;15.40;99.90
1359;DHT22;673;48.098;14.422;2023-07-31T03:19:45;15.30;99.90
1359;DHT22;673;48.098;14.422;2023-07-31T03:22:11;15.30;99.90
1359;DHT22;673;48.098;14.422;2023-07-31T03:24:38;15.20;99.90
1359;DHT22;673;48.098;14.422;2023-07-31T03:27:07;15.20;99.90
1359;DHT22;673;48.098;14.422;2023-07-31T03:29:34;15.20;99.90
1359;DHT22;673;48.098;14.422;2023-07-31T03:32:01;15.10;99.90
1359;DHT22;673;48.098;14.422;2023-07-31T03:34:28;15.10;99.90
1359;DHT22;673;48.098;14.422;2023-07-31T03:36:55;15.10;99.90
1359;DHT22;673;48.098;14.422;2023-07-31T03:39:22;15.10;99.90
1359;DHT22;673;48.098;14.422;2023-07-31T03:41:48;15.00;99.90
1359;DHT22;673;48.098;14.422;2023-07-31T03:44:17;15.00;99.90
1359;DHT22;673;48.098;14.422;2023-07-31T03:46:44;15.00;99.90
1359;DHT22;673;48.098;14.422;2023-07-31T03:49:11;14.90;99.90
1359;DHT22;673;48.098;14.422;2023-07-31T03:51:38;14.80;99.90
1359;DHT22;673;48.098;14.422;2023-07-31T03:54:04;14.70;99.90
1359;DHT22;673;48.098;14.422;2023-07-31T03:56:33;14.70;99.90
1359;DHT22;673;48.098;14.422;2023-07-31T03:59:00;14.60;99.90
1359;DHT22;673;48.098;14.422;2023-07-31T04:01:28;14.60;99.90
1359;DHT22;673;48.098;14.422;2023-07-31T04:03:55;14.60;99.90
1359;DHT22;673;48.098;14.422;2023-07-31T04:06:22;14.60;99.90
1359;DHT22;673;48.098;14.422;2023-07-31T04:08:49;14.60;99.90
1359;DHT22;673;48.098;14.422;2023-07-31T04:11:16;14.60;99.90
1359;DHT22;673;48.098;14.422;2023-07-31T04:13:43;14.70;99.90
1359;DHT22;673;48.098;14.422;2023-07-31T04:16:10;14.70;99.90
1359;DHT22;673;48.098;14.422;2023-07-31T04:18:39;14.80;99.90
1359;DHT22;673;48.098;14.422;2023-07-31T04:21:06;14.80;99.90
1359;DHT22;673;48.098;14.422;2023-07-31T04:23:33;14.90;99.90
1359;DHT22;673;48.098;14.422;2023-07-31T04:26:00;14.90;99.90
1359;DHT22;673;48.098;14.422;2023-07-31T04:28:27;14.80;99.90
1359;DHT22;673;48.098;14.422;2023-07-31T04:30:54;14.80;99.90
1359;DHT22;673;48.098;14.422;2023-07-31T04:33:21;14.80;99.90
1359;DHT22;673;48.098;14.422;2023-07-31T04:35:52;14.80;99.90
1359;DHT22;673;48.098;14.422;2023-07-31T04:38:20;14.80;99.90
1359;DHT22;673;48.098;14.422;2023-07-31T04:40:47;14.80;99.90
1359;DHT22;673;48.098;14.422;2023-07-31T04:43:14;14.80;99.90
1359;DHT22;673;48.098;14.422;2023-07-31T04:45:42;14.80;99.90
1359;DHT22;673;48.098;14.422;2023-07-31T04:48:09;14.80;99.90
1359;DHT22;673;48.098;14.422;2023-07-31T04:50:36;14.80;99.90
1359;DHT22;673;48.098;14.422;2023-07-31T04:53:04;14.80;99.90
1359;DHT22;673;48.098;14.422;2023-07-31T04:55:31;14.70;99.90
1359;DHT22;673;48.098;14.422;2023-07-31T04:57:59;14.80;99.90
1359;DHT22;673;48.098;14.422;2023-07-31T05:00:26;14.80;99.90
1359;DHT22;673;48.098;14.422;2023-07-31T05:02:53;14.80;99.90
1359;DHT22;673;48.098;14.422;2023-07-31T05:05:20;14.80;99.90
1359;DHT22;673;48.098;14.422;2023-07-31T05:07:47;14.80;99.90
1359;DHT22;673;48.098;14.422;2023-07-31T05:10:16;14.80;99.90
1359;DHT22;673;48.098;14.422;2023-07-31T05:12:42;14.80;99.90
1359;DHT22;673;48.098;14.422;2023-07-31T05:15:10;14.80;99.90
1359;DHT22;673;48.098;14.422;2023-07-31T05:17:37;14.90;99.90
1359;DHT22;673;48.098;14.422;2023-07-31T05:20:04;15.00;99.90
1359;DHT22;673;48.098;14.422;2023-07-31T05:22:31;15.20;99.90
1359;DHT22;673;48.098;14.422;2023-07-31T05:24:58;15.20;99.90
1359;DHT22;673;48.098;14.422;2023-07-31T05:27:27;15.40;99.90
1359;DHT22;673;48.098;14.422;2023-07-31T05:29:54;15.40;99.90
1359;DHT22;673;48.098;14.422;2023-07-31T05:32:21;15.40;99.90
1359;DHT22;673;48.098;14.422;2023-07-31T05:34:50;15.40;99.90
1359;DHT22;673;48.098;14.422;2023-07-31T05:37:17;15.50;99.90
1359;DHT22;673;48.098;14.422;2023-07-31T05:39:44;15.60;99.90
1359;DHT22;673;48.098;14.422;2023-07-31T05:42:11;15.60;99.90
1359;DHT22;673;48.098;14.422;2023-07-31T05:44:39;15.70;99.90
1359;DHT22;673;48.098;14.422;2023-07-31T05:47:06;15.80;99.90
1359;DHT22;673;48.098;14.422;2023-07-31T05:49:33;15.90;99.90
1359;DHT22;673;48.098;14.422;2023-07-31T05:52:00;15.90;99.90
1359;DHT22;673;48.098;14.422;2023-07-31T05:54:27;16.00;99.90
1359;DHT22;673;48.098;14.422;2023-07-31T05:56:54;16.30;99.90
1359;DHT22;673;48.098;14.422;2023-07-31T05:59:21;16.60;99.90
1359;DHT22;673;48.098;14.422;2023-07-31T06:01:49;17.00;99.90
1359;DHT22;673;48.098;14.422;2023-07-31T06:04:16;17.30;99.90
1359;DHT22;673;48.098;14.422;2023-07-31T06:06:43;17.70;99.90
1359;DHT22;673;48.098;14.422;2023-07-31T06:09:10;17.90;99.90
1359;DHT22;673;48.098;14.422;2023-07-31T06:11:37;18.00;99.90
1359;DHT22;673;48.098;14.422;2023-07-31T06:14:04;18.10;99.90
1359;DHT22;673;48.098;14.422;2023-07-31T06:16:31;18.30;99.90
1359;DHT22;673;48.098;14.422;2023-07-31T06:18:59;18.40;99.90
1359;DHT22;673;48.098;14.422;2023-07-31T06:21:26;18.50;99.90
1359;DHT22;673;48.098;14.422;2023-07-31T06:23:53;18.70;99.90
1359;DHT22;673;48.098;14.422;2023-07-31T06:26:20;18.80;99.90
1359;DHT22;673;48.098;14.422;2023-07-31T06:28:47;19.00;99.90
1359;DHT22;673;48.098;14.422;2023-07-31T06:31:14;18.80;99.90
1359;DHT22;673;48.098;14.422;2023-07-31T06:33:41;18.80;99.90
1359;DHT22;673;48.098;14.422;2023-07-31T06:36:09;19.00;99.90
1359;DHT22;673;48.098;14.422;2023-07-31T06:38:36;19.20;99.90
1359;DHT22;673;48.098;14.422;2023-07-31T06:41:04;19.40;99.90
1359;DHT22;673;48.098;14.422;2023-07-31T06:43:30;19.60;99.90
1359;DHT22;673;48.098;14.422;2023-07-31T06:45:59;19.60;99.90
1359;DHT22;673;48.098;14.422;2023-07-31T06:48:30;19.70;99.90
1359;DHT22;673;48.098;14.422;2023-07-31T06:50:57;19.90;99.90
1359;DHT22;673;48.098;14.422;2023-07-31T06:53:26;20.10;99.90
1359;DHT22;673;48.098;14.422;2023-07-31T06:55:53;20.10;99.90
1359;DHT22;673;48.098;14.422;2023-07-31T06:58:20;19.90;99.90
1359;DHT22;673;48.098;14.422;2023-07-31T07:00:47;19.90;99.90
1359;DHT22;673;48.098;14.422;2023-07-31T07:03:17;20.00;99.90
1359;DHT22;673;48.098;14.422;2023-07-31T07:05:44;20.10;99.90
1359;DHT22;673;48.098;14.422;2023-07-31T07:08:11;20.40;99.90
1359;DHT22;673;48.098;14.422;2023-07-31T07:10:39;20.60;99.90
1359;DHT22;673;48.098;14.422;2023-07-31T07:13:06;20.60;99.90
1359;DHT22;673;48.098;14.422;2023-07-31T07:15:33;20.70;99.90
1359;DHT22;673;48.098;14.422;2023-07-31T07:18:00;20.80;99.90
1359;DHT22;673;48.098;14.422;2023-07-31T07:20:29;20.90;99.90
1359;DHT22;673;48.098;14.422;2023-07-31T07:22:55;21.00;99.90
1359;DHT22;673;48.098;14.422;2023-07-31T07:25:22;21.10;99.90
1359;DHT22;673;48.098;14.422;2023-07-31T07:27:51;21.20;99.90
1359;DHT22;673;48.098;14.422;2023-07-31T07:30:18;21.40;99.90
1359;DHT22;673;48.098;14.422;2023-07-31T07:32:45;21.70;99.90
1359;DHT22;673;48.098;14.422;2023-07-31T07:35:12;21.70;98.70
1359;DHT22;673;48.098;14.422;2023-07-31T07:37:39;22.00;98.90
1359;DHT22;673;48.098;14.422;2023-07-31T07:40:07;22.10;97.10
1359;DHT22;673;48.098;14.422;2023-07-31T07:42:34;21.90;95.90
1359;DHT22;673;48.098;14.422;2023-07-31T07:45:03;21.90;98.40
1359;DHT22;673;48.098;14.422;2023-07-31T07:47:30;21.60;97.10
1359;DHT22;673;48.098;14.422;2023-07-31T07:49:57;21.30;96.40
1359;DHT22;673;48.098;14.422;2023-07-31T07:52:24;21.40;97.10
1359;DHT22;673;48.098;14.422;2023-07-31T07:54:51;21.30;98.30
1359;DHT22;673;48.098;14.422;2023-07-31T07:57:18;21.30;98.50
1359;DHT22;673;48.098;14.422;2023-07-31T07:59:45;21.30;98.00
1359;DHT22;673;48.098;14.422;2023-07-31T08:02:13;21.50;96.50
1359;DHT22;673;48.098;14.422;2023-07-31T08:04:40;21.50;98.40
1359;DHT22;673;48.098;14.422;2023-07-31T08:07:07;21.40;97.60
1359;DHT22;673;48.098;14.422;2023-07-31T08:09:34;21.40;97.20
1359;DHT22;673;48.098;14.422;2023-07-31T08:12:01;21.60;98.80
1359;DHT22;673;48.098;14.422;2023-07-31T08:14:29;21.50;98.90
1359;DHT22;673;48.098;14.422;2023-07-31T08:16:56;21.70;97.70
1359;DHT22;673;48.098;14.422;2023-07-31T08:19:24;22.00;98.10
1359;DHT22;673;48.098;14.422;2023-07-31T08:21:51;22.50;95.70
1359;DHT22;673;48.098;14.422;2023-07-31T08:24:18;22.60;94.10
1359;DHT22;673;48.098;14.422;2023-07-31T08:26:46;22.60;95.10
1359;DHT22;673;48.098;14.422;2023-07-31T08:29:13;22.60;94.60
1359;DHT22;673;48.098;14.422;2023-07-31T08:31:40;22.70;94.40
1359;DHT22;673;48.098;14.422;2023-07-31T08:34:07;22.60;93.50
1359;DHT22;673;48.098;14.422;2023-07-31T08:36:36;22.80;95.70
1359;DHT22;673;48.098;14.422;2023-07-31T08:39:03;22.80;94.40
1359;DHT22;673;48.098;14.422;2023-07-31T08:41:30;22.60;94.20
1359;DHT22;673;48.098;14.422;2023-07-31T08:43:57;22.40;93.60
1359;DHT22;673;48.098;14.422;2023-07-31T08:46:25;22.20;96.00
1359;DHT22;673;48.098;14.422;2023-07-31T08:48:52;22.40;94.90
1359;DHT22;673;48.098;14.422;2023-07-31T08:51:20;22.60;93.70
1359;DHT22;673;48.098;14.422;2023-07-31T08:53:48;22.60;93.30
1359;DHT22;673;48.098;14.422;2023-07-31T08:56:15;22.70;92.40
1359;DHT22;673;48.098;14.422;2023-07-31T08:58:44;22.90;94.20
1359;DHT22;673;48.098;14.422;2023-07-31T09:01:13;23.40;95.10
1359;DHT22;673;48.098;14.422;2023-07-31T09:03:40;23.80;95.90
1359;DHT22;673;48.098;14.422;2023-07-31T09:06:08;24.30;92.20
1359;DHT22;673;48.098;14.422;2023-07-31T09:08:39;24.50;93.60
1359;DHT22;673;48.098;14.422;2023-07-31T09:11:09;24.20;92.20
1359;DHT22;673;48.098;14.422;2023-07-31T09:13:37;24.00;91.30
1359;DHT22;673;48.098;14.422;2023-07-31T09:16:07;23.40;91.50
1359;DHT22;673;48.098;14.422;2023-07-31T09:18:52;23.80;93.30
1359;DHT22;673;48.098;14.422;2023-07-31T09:21:20;24.10;93.70
1359;DHT22;673;48.098;14.422;2023-07-31T09:23:47;24.00;91.90
1359;DHT22;673;48.098;14.422;2023-07-31T09:26:31;24.00;93.50
1359;DHT22;673;48.098;14.422;2023-07-31T09:28:58;24.00;87.90
1359;DHT22;673;48.098;14.422;2023-07-31T09:31:32;24.00;91.60
1359;DHT22;673;48.098;14.422;2023-07-31T09:34:00;23.80;92.00
1359;DHT22;673;48.098;14.422;2023-07-31T09:36:29;23.60;91.80
1359;DHT22;673;48.098;14.422;2023-07-31T09:39:02;23.20;86.40
1359;DHT22;673;48.098;14.422;2023-07-31T09:41:31;23.20;88.50
1359;DHT22;673;48.098;14.422;2023-07-31T09:43:57;23.50;91.00
1359;DHT22;673;48.098;14.422;2023-07-31T09:46:27;23.40;89.50
1359;DHT22;673;48.098;14.422;2023-07-31T09:49:06;23.10;91.10
1359;DHT22;673;48.098;14.422;2023-07-31T09:51:34;22.90;91.70
1359;DHT22;673;48.098;14.422;2023-07-31T09:54:10;23.10;92.10
1359;DHT22;673;48.098;14.422;2023-07-31T09:56:42;23.10;92.40
1359;DHT22;673;48.098;14.422;2023-07-31T09:59:12;23.50;92.10
1359;DHT22;673;48.098;14.422;2023-07-31T10:01:41;23.90;92.20
1359;DHT22;673;48.098;14.422;2023-07-31T10:04:08;24.00;90.00
1359;DHT22;673;48.098;14.422;2023-07-31T10:06:36;24.10;88.70
1359;DHT22;673;48.098;14.422;2023-07-31T10:09:06;24.00;90.40
1359;DHT22;673;48.098;14.422;2023-07-31T10:11:36;23.60;91.00
1359;DHT22;673;48.098;14.422;2023-07-31T10:14:05;23.40;90.70
1359;DHT22;673;48.098;14.422;2023-07-31T10:16:34;23.60;91.60
1359;DHT22;673;48.098;14.422;2023-07-31T10:19:02;23.90;91.20
1359;DHT22;673;48.098;14.422;2023-07-31T10:21:29;23.90;90.00
1359;DHT22;673;48.098;14.422;2023-07-31T10:24:03;23.70;88.40
1359;DHT22;673;48.098;14.422;2023-07-31T10:26:31;23.70;92.10
1359;DHT22;673;48.098;14.422;2023-07-31T10:28:58;23.60;90.80
1359;DHT22;673;48.098;14.422;2023-07-31T10:31:27;23.70;91.40
1359;DHT22;673;48.098;14.422;2023-07-31T10:33:55;23.70;91.20
1359;DHT22;673;48.098;14.422;2023-07-31T10:36:23;23.70;91.90
1359;DHT22;673;48.098;14.422;2023-07-31T10:38:51;24.10;93.50
1359;DHT22;673;48.098;14.422;2023-07-31T10:41:18;24.20;91.90
1359;DHT22;673;48.098;14.422;2023-07-31T10:43:46;24.00;86.90
1359;DHT22;673;48.098;14.422;2023-07-31T10:46:14;24.20;90.00
1359;DHT22;673;48.098;14.422;2023-07-31T10:48:42;24.30;89.00
1359;DHT22;673;48.098;14.422;2023-07-31T10:51:10;24.30;90.10
1359;DHT22;673;48.098;14.422;2023-07-31T10:53:39;24.40;91.90
1359;DHT22;673;48.098;14.422;2023-07-31T10:56:08;24.20;92.00
1359;DHT22;673;48.098;14.422;2023-07-31T10:58:36;23.70;88.60
1359;DHT22;673;48.098;14.422;2023-07-31T11:01:04;24.00;90.20
1359;DHT22;673;48.098;14.422;2023-07-31T11:03:44;24.40;90.40
1359;DHT22;673;48.098;14.422;2023-07-31T11:06:12;24.80;86.50
1359;DHT22;673;48.098;14.422;2023-07-31T11:08:42;24.80;89.10
1359;DHT22;673;48.098;14.422;2023-07-31T11:11:11;25.30;87.30
1359;DHT22;673;48.098;14.422;2023-07-31T11:13:44;25.50;85.40
1359;DHT22;673;48.098;14.422;2023-07-31T11:16:12;25.40;79.30
1359;DHT22;673;48.098;14.422;2023-07-31T11:18:42;25.10;85.30
1359;DHT22;673;48.098;14.422;2023-07-31T11:21:12;25.00;82.70
1359;DHT22;673;48.098;14.422;2023-07-31T11:23:39;25.00;85.60
1359;DHT22;673;48.098;14.422;2023-07-31T11:26:06;24.90;83.70
1359;DHT22;673;48.098;14.422;2023-07-31T11:28:34;25.00;83.50
1359;DHT22;673;48.098;14.422;2023-07-31T11:31:02;24.80;82.70
1359;DHT22;673;48.098;14.422;2023-07-31T11:33:29;24.50;82.10
1359;DHT22;673;48.098;14.422;2023-07-31T11:35:57;24.30;83.20
1359;DHT22;673;48.098;14.422;2023-07-31T11:38:26;24.50;84.70
1359;DHT22;673;48.098;14.422;2023-07-31T11:40:54;24.90;82.50
1359;DHT22;673;48.098;14.422;2023-07-31T11:43:21;25.00;79.90
1359;DHT22;673;48.098;14.422;2023-07-31T11:45:50;25.20;81.90
1359;DHT22;673;48.098;14.422;2023-07-31T11:48:21;25.40;85.80
1359;DHT22;673;48.098;14.422;2023-07-31T11:50:49;25.60;81.50
1359;DHT22;673;48.098;14.422;2023-07-31T11:53:20;25.50;83.80
1359;DHT22;673;48.098;14.422;2023-07-31T11:55:48;25.50;86.60
1359;DHT22;673;48.098;14.422;2023-07-31T11:58:16;25.50;83.80
1359;DHT22;673;48.098;14.422;2023-07-31T12:00:44;25.20;82.00
1359;DHT22;673;48.098;14.422;2023-07-31T12:03:12;25.50;84.40
1359;DHT22;673;48.098;14.422;2023-07-31T12:05:39;25.50;80.40
1359;DHT22;673;48.098;14.422;2023-07-31T12:08:10;25.20;82.50
1359;DHT22;673;48.098;14.422;2023-07-31T12:10:39;25.90;77.80
1359;DHT22;673;48.098;14.422;2023-07-31T12:13:08;25.90;83.70
1359;DHT22;673;48.098;14.422;2023-07-31T12:15:40;26.00;80.00
1359;DHT22;673;48.098;14.422;2023-07-31T12:18:09;25.60;79.30
1359;DHT22;673;48.098;14.422;2023-07-31T12:20:41;25.30;81.30
1359;DHT22;673;48.098;14.422;2023-07-31T12:23:13;24.60;83.10
1359;DHT22;673;48.098;14.422;2023-07-31T12:25:42;25.00;83.30
1359;DHT22;673;48.098;14.422;2023-07-31T12:28:09;25.60;88.50
1359;DHT22;673;48.098;14.422;2023-07-31T12:30:39;25.90;81.60
1359;DHT22;673;48.098;14.422;2023-07-31T12:33:07;25.60;79.50
1359;DHT22;673;48.098;14.422;2023-07-31T12:35:38;25.60;82.70
1359;DHT22;673;48.098;14.422;2023-07-31T12:38:07;25.60;82.70
1359;DHT22;673;48.098;14.422;2023-07-31T12:40:37;26.00;80.30
1359;DHT22;673;48.098;14.422;2023-07-31T12:43:05;26.20;81.20
1359;DHT22;673;48.098;14.422;2023-07-31T12:45:32;26.00;81.80
1359;DHT22;673;48.098;14.422;2023-07-31T12:48:00;26.00;84.80
1359;DHT22;673;48.098;14.422;2023-07-31T12:50:27;26.20;87.10
1359;DHT22;673;48.098;14.422;2023-07-31T12:52:54;26.60;78.40
1359;DHT22;673;48.098;14.422;2023-07-31T12:55:22;26.00;83.80
1359;DHT22;673;48.098;14.422;2023-07-31T12:57:49;26.30;80.70
1359;DHT22;673;48.098;14.422;2023-07-31T13:00:18;25.90;75.90
1359;DHT22;673;48.098;14.422;2023-07-31T13:02:45;25.80;79.60
1359;DHT22;673;48.098;14.422;2023-07-31T13:05:12;26.00;79.60
1359;DHT22;673;48.098;14.422;2023-07-31T13:07:39;26.10;75.10
1359;DHT22;673;48.098;14.422;2023-07-31T13:10:07;26.10;79.10
1359;DHT22;673;48.098;14.422;2023-07-31T13:12:35;26.20;75.80
1359;DHT22;673;48.098;14.422;2023-07-31T13:15:02;26.30;73.60
1359;DHT22;673;48.098;14.422;2023-07-31T13:17:30;26.30;77.90
1359;DHT22;673;48.098;14.422;2023-07-31T13:19:57;26.20;85.20
1359;DHT22;673;48.098;14.422;2023-07-31T13:22:24;26.20;78.00
1359;DHT22;673;48.098;14.422;2023-07-31T13:24:52;26.30;78.10
1359;DHT22;673;48.098;14.422;2023-07-31T13:27:19;26.60;76.90
1359;DHT22;673;48.098;14.422;2023-07-31T13:29:47;26.50;72.40
1359;DHT22;673;48.098;14.422;2023-07-31T13:32:15;26.70;70.50
1359;DHT22;673;48.098;14.422;2023-07-31T13:34:43;26.40;75.90
1359;DHT22;673;48.098;14.422;2023-07-31T13:37:10;26.00;77.70
1359;DHT22;673;48.098;14.422;2023-07-31T13:39:37;26.00;76.50
1359;DHT22;673;48.098;14.422;2023-07-31T13:42:05;26.10;79.50
1359;DHT22;673;48.098;14.422;2023-07-31T13:44:33;25.80;75.10
1359;DHT22;673;48.098;14.422;2023-07-31T13:47:00;25.80;77.30
1359;DHT22;673;48.098;14.422;2023-07-31T13:49:28;25.80;79.20
1359;DHT22;673;48.098;14.422;2023-07-31T13:51:57;26.10;75.20
1359;DHT22;673;48.098;14.422;2023-07-31T13:54:24;26.20;72.00
1359;DHT22;673;48.098;14.422;2023-07-31T13:56:51;26.20;72.50
1359;DHT22;673;48.098;14.422;2023-07-31T13:59:19;26.00;76.90
1359;DHT22;673;48.098;14.422;2023-07-31T14:01:46;26.10;76.20
1359;DHT22;673;48.098;14.422;2023-07-31T14:04:13;25.70;71.90
1359;DHT22;673;48.098;14.422;2023-07-31T14:06:40;26.00;73.80
1359;DHT22;673;48.098;14.422;2023-07-31T14:09:08;25.90;70.80
1359;DHT22;673;48.098;14.422;2023-07-31T14:11:35;26.00;70.30
1359;DHT22;673;48.098;14.422;2023-07-31T14:14:02;26.10;74.00
1359;DHT22;673;48.098;14.422;2023-07-31T14:16:30;26.10;69.40
1359;DHT22;673;48.098;14.422;2023-07-31T14:18:57;26.00;69.90
1359;DHT22;673;48.098;14.422;2023-07-31T14:21:25;25.80;71.00
1359;DHT22;673;48.098;14.422;2023-07-31T14:23:52;26.00;74.20
1359;DHT22;673;48.098;14.422;2023-07-31T14:26:20;26.10;69.60
1359;DHT22;673;48.098;14.422;2023-07-31T14:28:47;26.10;68.00
1359;DHT22;673;48.098;14.422;2023-07-31T14:31:14;26.20;71.50
1359;DHT22;673;48.098;14.422;2023-07-31T14:33:41;26.30;72.20
1359;DHT22;673;48.098;14.422;2023-07-31T14:36:08;26.00;68.30
1359;DHT22;673;48.098;14.422;2023-07-31T14:38:35;25.80;68.90
1359;DHT22;673;48.098;14.422;2023-07-31T14:41:02;25.90;71.70
1359;DHT22;673;48.098;14.422;2023-07-31T14:43:30;26.00;67.00
1359;DHT22;673;48.098;14.422;2023-07-31T14:45:58;26.00;69.10
1359;DHT22;673;48.098;14.422;2023-07-31T14:48:25;25.90;67.10
1359;DHT22;673;48.098;14.422;2023-07-31T14:50:52;25.80;68.30
1359;DHT22;673;48.098;14.422;2023-07-31T14:53:20;25.90;70.60
1359;DHT22;673;48.098;14.422;2023-07-31T14:55:47;26.10;65.50
1359;DHT22;673;48.098;14.422;2023-07-31T14:58:14;26.30;66.90
1359;DHT22;673;48.098;14.422;2023-07-31T15:00:44;26.30;69.10
1359;DHT22;673;48.098;14.422;2023-07-31T15:03:11;26.30;66.50
1359;DHT22;673;48.098;14.422;2023-07-31T15:05:38;26.30;65.40
1359;DHT22;673;48.098;14.422;2023-07-31T15:08:04;26.50;70.00
1359;DHT22;673;48.098;14.422;2023-07-31T15:10:31;26.60;72.60
1359;DHT22;673;48.098;14.422;2023-07-31T15:12:59;26.40;64.50
1359;DHT22;673;48.098;14.422;2023-07-31T15:15:27;26.40;67.50
1359;DHT22;673;48.098;14.422;2023-07-31T15:17:55;26.40;66.20
1359;DHT22;673;48.098;14.422;2023-07-31T15:20:22;26.60;69.00
1359;DHT22;673;48.098;14.422;2023-07-31T15:22:49;26.60;64.90
1359;DHT22;673;48.098;14.422;2023-07-31T15:25:16;26.60;65.30
1359;DHT22;673;48.098;14.422;2023-07-31T15:27:43;26.70;67.30
1359;DHT22;673;48.098;14.422;2023-07-31T15:30:10;27.10;61.30
1359;DHT22;673;48.098;14.422;2023-07-31T15:32:38;27.20;61.00
1359;DHT22;673;48.098;14.422;2023-07-31T15:35:07;27.20;61.60
1359;DHT22;673;48.098;14.422;2023-07-31T15:37:34;27.20;58.80
1359;DHT22;673;48.098;14.422;2023-07-31T15:40:01;27.30;58.60
1359;DHT22;673;48.098;14.422;2023-07-31T15:42:28;27.40;59.30
1359;DHT22;673;48.098;14.422;2023-07-31T15:44:55;27.30;63.70
1359;DHT22;673;48.098;14.422;2023-07-31T15:47:22;27.70;60.40
1359;DHT22;673;48.098;14.422;2023-07-31T15:49:49;28.00;60.40
1359;DHT22;673;48.098;14.422;2023-07-31T15:52:18;27.80;62.40
1359;DHT22;673;48.098;14.422;2023-07-31T15:54:44;27.30;59.00
1359;DHT22;673;48.098;14.422;2023-07-31T15:57:11;27.00;63.30
1359;DHT22;673;48.098;14.422;2023-07-31T15:59:38;26.70;63.40
1359;DHT22;673;48.098;14.422;2023-07-31T16:02:06;26.70;66.30
1359;DHT22;673;48.098;14.422;2023-07-31T16:04:35;26.90;65.00
1359;DHT22;673;48.098;14.422;2023-07-31T16:07:03;26.80;63.90
1359;DHT22;673;48.098;14.422;2023-07-31T16:09:31;26.90;64.00